Time;durP1;ratioP1;P1;durP2;ratioP2;P2;SDS_P1;SDS_P2;PMS_P1;PMS_P2;Temp;Humidity;BMP_temperature;BMP_pressure;BME280_temperature;BME280_humidity;BME280_pressure;Samples;Min_cycle;Max_cycle;Signal;HPM_P1;HPM_P2
2023/05/25 00:01:07;;;;;;;1.50;1.40;;;13.70;99.90;;;;;;5031314;28;20247;-61
2023/05/25 00:03:34;;;;;;;1.40;1.30;;;13.60;99.90;;;;;;5029571;28;20792;-61
2023/05/25 00:06:02;;;;;;;1.52;1.42;;;13.50;99.90;;;;;;5029036;28;20201;-60
2023/05/25 00:08:29;;;;;;;1.58;1.48;;;13.40;99.90;;;;;;5026371;28;20223;-61
2023/05/25 00:10:56;;;;;;;1.52;1.42;;;13.40;99.90;;;;;;5028484;28;20258;-61
2023/05/25 00:13:22;;;;;;;1.48;1.38;;;13.30;99.90;;;;;;5028680;28;20217;-62
2023/05/25 00:15:51;;;;;;;1.50;1.40;;;13.40;99.90;;;;;;5028570;28;20709;-62
2023/05/25 00:18:18;;;;;;;1.42;1.33;;;13.40;99.90;;;;;;5028428;28;20575;-61
2023/05/25 00:20:46;;;;;;;1.45;1.33;;;13.50;99.90;;;;;;5025495;28;20914;-62
2023/05/25 00:23:12;;;;;;;1.70;1.60;;;13.50;99.90;;;;;;5029618;28;20236;-62
2023/05/25 00:25:39;;;;;;;1.33;1.25;;;13.50;99.90;;;;;;5030156;28;20207;-62
2023/05/25 00:28:06;;;;;;;1.60;1.38;;;13.50;99.90;;;;;;5029695;28;20316;-62
2023/05/25 00:30:33;;;;;;;1.30;1.20;;;13.40;99.90;;;;;;5029299;28;20208;-61
2023/05/25 00:33:01;;;;;;;1.42;1.33;;;13.30;99.90;;;;;;5032697;28;20211;-63
2023/05/25 00:35:28;;;;;;;1.98;1.70;;;13.20;99.90;;;;;;5033561;28;20386;-62
2023/05/25 00:37:55;;;;;;;1.45;1.35;;;13.20;99.90;;;;;;5032901;28;20197;-62
2023/05/25 00:40:22;;;;;;;1.50;1.40;;;13.20;99.90;;;;;;5032460;28;20223;-61
2023/05/25 00:42:49;;;;;;;1.60;1.50;;;13.20;99.90;;;;;;5033063;28;20211;-61
2023/05/25 00:45:16;;;;;;;1.70;1.60;;;13.20;99.90;;;;;;5033306;28;20220;-61
2023/05/25 00:47:44;;;;;;;1.42;1.33;;;13.10;99.90;;;;;;5032639;28;20857;-62
2023/05/25 00:50:16;;;;;;;1.35;1.30;;;13.00;99.90;;;;;;5032705;28;20204;-61
2023/05/25 00:52:43;;;;;;;1.73;1.58;;;13.10;99.90;;;;;;5032945;28;20201;-61
2023/05/25 00:55:12;;;;;;;1.38;1.30;;;13.10;99.90;;;;;;5032620;28;20235;-61
2023/05/25 00:57:44;;;;;;;1.40;1.30;;;13.10;99.90;;;;;;5033004;28;20216;-62
2023/05/25 01:00:14;;;;;;;1.65;1.55;;;13.00;99.90;;;;;;5031997;28;20651;-60
2023/05/25 01:02:42;;;;;;;1.33;1.23;;;13.00;99.90;;;;;;5033028;28;20217;-62
2023/05/25 01:05:14;;;;;;;1.40;1.30;;;13.10;99.90;;;;;;5033202;28;20204;-61
2023/05/25 01:07:43;;;;;;;1.30;1.20;;;13.00;99.90;;;;;;5033055;28;20222;-62
2023/05/25 01:10:12;;;;;;;1.40;1.30;;;12.80;99.90;;;;;;5031984;28;20204;-60
2023/05/25 01:12:42;;;;;;;1.40;1.30;;;12.70;99.90;;;;;;5032815;28;20204;-63
2023/05/25 01:15:09;;;;;;;1.42;1.33;;;12.70;99.90;;;;;;5032496;28;20225;-62
2023/05/25 01:17:37;;;;;;;1.40;1.30;;;12.50;99.90;;;;;;5032671;28;20219;-61
2023/05/25 01:20:05;;;;;;;1.35;1.25;;;12.40;99.90;;;;;;5031828;28;20225;-61
2023/05/25 01:22:39;;;;;;;1.47;1.37;;;12.30;99.90;;;;;;5033816;28;20212;-62
2023/05/25 01:25:14;;;;;;;1.40;1.30;;;12.30;99.90;;;;;;5033102;28;20555;-61
2023/05/25 01:27:46;;;;;;;1.43;1.33;;;12.10;99.90;;;;;;5032594;28;20266;-62
2023/05/25 01:30:16;;;;;;;1.15;1.15;;;12.10;99.90;;;;;;5032042;28;20208;-61
2023/05/25 01:32:43;;;;;;;1.35;1.25;;;12.10;99.90;;;;;;5033948;28;20587;-61
2023/05/25 01:35:11;;;;;;;1.30;1.20;;;12.20;99.90;;;;;;5033580;28;20225;-61
2023/05/25 01:37:48;;;;;;;1.48;1.38;;;12.20;99.90;;;;;;5033218;28;20212;-61
2023/05/25 01:40:16;;;;;;;1.30;1.30;;;12.00;99.90;;;;;;5031725;28;20204;-62
2023/05/25 01:42:43;;;;;;;1.50;1.40;;;11.90;99.90;;;;;;5032435;28;20213;-61
2023/05/25 01:45:15;;;;;;;1.70;1.60;;;12.10;99.90;;;;;;5031516;28;20208;-62
2023/05/25 01:47:48;;;;;;;1.50;1.40;;;12.10;99.90;;;;;;5025319;28;20220;-61
2023/05/25 01:50:23;;;;;;;1.40;1.30;;;12.10;99.90;;;;;;5031562;28;20224;-62
2023/05/25 01:53:00;;;;;;;1.30;1.20;;;12.00;99.90;;;;;;5032392;28;20487;-61
2023/05/25 01:55:32;;;;;;;1.38;1.30;;;12.00;99.90;;;;;;5032018;28;20719;-61
2023/05/25 01:58:03;;;;;;;1.73;1.30;;;12.00;99.90;;;;;;5031697;28;20561;-62
2023/05/25 02:00:34;;;;;;;1.48;1.40;;;12.00;99.90;;;;;;5031182;28;20248;-62
2023/05/25 02:23:37;;;;;;;1.33;1.23;;;11.70;99.90;;;;;;5031323;28;20179;-62
2023/05/25 02:26:07;;;;;;;1.08;1.08;;;11.60;99.90;;;;;;5027644;28;20208;-61
2023/05/25 02:28:36;;;;;;;1.58;1.48;;;11.50;99.90;;;;;;5031263;28;20225;-61
2023/05/25 02:31:03;;;;;;;1.48;1.38;;;11.50;99.90;;;;;;5030653;28;20204;-61
2023/05/25 02:33:30;;;;;;;1.50;1.40;;;11.60;99.90;;;;;;5031182;28;20296;-61
2023/05/25 02:36:00;;;;;;;1.45;1.33;;;11.60;99.90;;;;;;5030292;28;20229;-62
2023/05/25 02:38:27;;;;;;;1.42;1.33;;;11.70;99.90;;;;;;5031080;28;20271;-62
2023/05/25 02:40:59;;;;;;;1.30;1.20;;;11.80;99.90;;;;;;5031004;28;20209;-61
2023/05/25 02:43:29;;;;;;;1.35;1.25;;;11.80;99.90;;;;;;5031540;28;20189;-62
2023/05/25 02:46:00;;;;;;;1.88;1.70;;;11.80;99.90;;;;;;5030694;28;20188;-63
2023/05/25 02:48:31;;;;;;;1.50;1.40;;;11.70;99.90;;;;;;5030870;28;20276;-62
2023/05/25 02:51:08;;;;;;;1.50;1.40;;;11.70;99.90;;;;;;5031018;28;20200;-61
2023/05/25 02:53:38;;;;;;;1.70;1.60;;;11.70;99.90;;;;;;5031018;28;20196;-61
2023/05/25 02:56:21;;;;;;;1.70;1.60;;;11.70;99.90;;;;;;5030629;28;20725;-61
2023/05/25 02:58:53;;;;;;;1.40;1.30;;;11.80;99.90;;;;;;5030938;28;20741;-61
2023/05/25 03:01:21;;;;;;;1.60;1.50;;;11.70;99.90;;;;;;5030405;28;20232;-62
2023/05/25 03:03:51;;;;;;;1.57;1.47;;;11.60;99.90;;;;;;5030456;28;20205;-61
2023/05/25 03:06:20;;;;;;;1.50;1.40;;;11.60;99.90;;;;;;5030860;28;20232;-61
2023/05/25 03:08:47;;;;;;;1.45;1.35;;;11.60;99.90;;;;;;5031076;28;20224;-63
2023/05/25 03:11:17;;;;;;;1.77;1.67;;;11.70;99.90;;;;;;5030428;28;20208;-61
2023/05/25 03:13:46;;;;;;;1.42;1.33;;;11.60;99.90;;;;;;5030112;28;20616;-62
2023/05/25 03:16:14;;;;;;;1.65;1.48;;;11.70;99.90;;;;;;5030190;28;20702;-62
2023/05/25 03:18:41;;;;;;;2.05;1.50;;;11.80;99.90;;;;;;5030615;28;20320;-62
2023/05/25 03:21:08;;;;;;;1.60;1.50;;;11.80;99.90;;;;;;5029713;28;20390;-62
2023/05/25 03:23:36;;;;;;;1.58;1.48;;;11.80;99.90;;;;;;5030409;28;20304;-62
2023/05/25 03:26:03;;;;;;;1.40;1.30;;;11.70;99.90;;;;;;5030402;28;20236;-62
2023/05/25 03:28:34;;;;;;;1.60;1.50;;;11.60;99.90;;;;;;5030222;28;20232;-62
2023/05/25 03:31:07;;;;;;;1.63;1.52;;;11.60;99.90;;;;;;5029749;28;20227;-62
2023/05/25 03:33:37;;;;;;;1.50;1.40;;;11.60;99.90;;;;;;5030635;28;20244;-60
2023/05/25 03:36:12;;;;;;;1.38;1.27;;;11.70;99.90;;;;;;5029950;28;20231;-61
2023/05/25 03:38:43;;;;;;;1.92;1.48;;;11.70;99.90;;;;;;5030033;28;20347;-60
2023/05/25 03:41:12;;;;;;;1.50;1.40;;;11.60;99.90;;;;;;5029736;28;20208;-62
2023/05/25 03:43:48;;;;;;;1.60;1.50;;;11.50;99.90;;;;;;5030142;28;20713;-62
2023/05/25 03:46:16;;;;;;;1.50;1.40;;;11.50;99.90;;;;;;5030781;28;20291;-62
2023/05/25 03:48:43;;;;;;;1.60;1.50;;;11.50;99.90;;;;;;5030913;28;20267;-62
2023/05/25 03:51:10;;;;;;;1.50;1.40;;;11.60;99.90;;;;;;5029694;28;20307;-62
2023/05/25 03:53:37;;;;;;;1.52;1.42;;;11.70;99.90;;;;;;5030225;28;20322;-62
2023/05/25 03:56:04;;;;;;;1.50;1.40;;;11.70;99.90;;;;;;5030550;28;20260;-62
2023/05/25 03:58:31;;;;;;;1.50;1.40;;;11.70;99.90;;;;;;5030108;28;20315;-61
2023/05/25 04:01:03;;;;;;;1.70;1.60;;;11.60;99.90;;;;;;5029327;28;20211;-61
2023/05/25 04:03:32;;;;;;;1.60;1.50;;;11.70;99.90;;;;;;5030406;28;20318;-62
2023/05/25 04:05:59;;;;;;;1.30;1.20;;;11.60;99.90;;;;;;5029700;28;20208;-63
2023/05/25 04:08:29;;;;;;;1.92;1.83;;;11.60;99.90;;;;;;5033703;28;20231;-61
2023/05/25 04:10:59;;;;;;;1.65;1.55;;;11.50;99.90;;;;;;5033035;28;20212;-62
2023/05/25 04:13:26;;;;;;;1.50;1.40;;;11.60;99.90;;;;;;5034239;28;20208;-63
2023/05/25 04:15:53;;;;;;;1.60;1.50;;;11.60;99.90;;;;;;5033762;28;20228;-64
2023/05/25 04:18:21;;;;;;;1.65;1.55;;;11.70;99.90;;;;;;5033690;28;20687;-62
2023/05/25 04:20:48;;;;;;;1.60;1.50;;;11.70;99.90;;;;;;5033235;28;20205;-61
2023/05/25 04:23:15;;;;;;;1.80;1.70;;;11.70;99.90;;;;;;5034001;28;20705;-62
2023/05/25 04:25:44;;;;;;;3.28;1.67;;;11.80;99.90;;;;;;5033922;28;20197;-63
2023/05/25 04:28:11;;;;;;;1.48;1.30;;;11.70;99.90;;;;;;5033580;28;20601;-63
2023/05/25 04:30:38;;;;;;;1.80;1.70;;;11.70;99.90;;;;;;5032878;28;20204;-62
2023/05/25 04:33:05;;;;;;;1.60;1.50;;;11.70;99.90;;;;;;5033360;28;20212;-61
2023/05/25 04:35:33;;;;;;;2.30;1.70;;;11.70;99.90;;;;;;5033468;28;20232;-61
2023/05/25 04:38:01;;;;;;;1.63;1.53;;;11.70;99.90;;;;;;5034505;28;20299;-61
2023/05/25 04:40:28;;;;;;;1.60;1.50;;;11.70;99.90;;;;;;5033335;28;20736;-62
2023/05/25 04:42:55;;;;;;;1.70;1.60;;;11.80;99.90;;;;;;5033167;28;20576;-61
2023/05/25 04:45:22;;;;;;;1.77;1.67;;;11.70;99.90;;;;;;5033267;28;20244;-61
2023/05/25 04:47:49;;;;;;;2.03;1.83;;;11.70;99.90;;;;;;5033240;28;20562;-60
2023/05/25 04:50:16;;;;;;;1.80;1.70;;;11.60;99.90;;;;;;5032944;28;20215;-63
2023/05/25 04:52:45;;;;;;;1.42;1.33;;;11.60;99.90;;;;;;5033255;28;20640;-66
2023/05/25 04:55:12;;;;;;;1.80;1.70;;;11.60;99.90;;;;;;5033252;28;20229;-60
2023/05/25 04:57:39;;;;;;;1.85;1.75;;;11.60;99.90;;;;;;5033514;28;20201;-61
2023/05/25 05:00:08;;;;;;;1.77;1.67;;;11.60;99.90;;;;;;5032295;28;20691;-62
2023/05/25 05:02:35;;;;;;;1.52;1.40;;;11.60;99.90;;;;;;5033331;28;20714;-61
2023/05/25 05:05:02;;;;;;;1.67;1.58;;;12.00;99.90;;;;;;5033368;28;20200;-61
2023/05/25 05:07:30;;;;;;;2.53;1.92;;;12.80;99.90;;;;;;5032843;28;20287;-63
2023/05/25 05:09:58;;;;;;;1.75;1.65;;;13.50;99.90;;;;;;5012529;28;20284;-62
2023/05/25 05:12:25;;;;;;;2.20;2.00;;;14.00;99.90;;;;;;5012982;28;20208;-61
2023/05/25 05:14:52;;;;;;;1.77;1.67;;;14.20;99.90;;;;;;5013325;28;20225;-61
2023/05/25 05:17:19;;;;;;;1.80;1.70;;;13.80;99.90;;;;;;5013288;28;20645;-62
2023/05/25 05:19:45;;;;;;;1.80;1.70;;;13.70;99.90;;;;;;5011957;28;20231;-61
2023/05/25 05:22:14;;;;;;;1.75;1.65;;;13.60;99.90;;;;;;5013342;28;20586;-62
2023/05/25 05:24:41;;;;;;;1.70;1.60;;;13.50;99.90;;;;;;5013256;28;20300;-63
2023/05/25 05:27:11;;;;;;;1.73;1.63;;;13.30;99.90;;;;;;5012433;28;20197;-62
2023/05/25 05:29:37;;;;;;;2.13;1.67;;;13.30;99.90;;;;;;5013709;28;20233;-61
2023/05/25 05:32:04;;;;;;;1.83;1.70;;;13.20;99.90;;;;;;5013640;28;20213;-61
2023/05/25 05:34:31;;;;;;;2.10;1.90;;;13.40;99.90;;;;;;5014144;28;20231;-62
2023/05/25 05:36:58;;;;;;;1.50;1.40;;;13.50;99.90;;;;;;5013560;28;20256;-61
2023/05/25 05:39:25;;;;;;;2.00;1.45;;;13.60;99.90;;;;;;5013459;28;20228;-61
2023/05/25 05:41:52;;;;;;;2.03;1.80;;;13.90;99.90;;;;;;5022533;28;20259;-60
2023/05/25 05:44:21;;;;;;;1.60;1.50;;;13.90;99.90;;;;;;5024350;28;20213;-61
2023/05/25 05:46:48;;;;;;;1.80;1.70;;;13.90;99.90;;;;;;5029535;28;20202;-61
2023/05/25 05:49:15;;;;;;;1.70;1.60;;;14.10;99.90;;;;;;5020087;28;20255;-61
2023/05/25 05:51:42;;;;;;;1.77;1.67;;;14.20;99.90;;;;;;5018726;28;20201;-63
2023/05/25 05:54:09;;;;;;;1.60;1.50;;;14.20;99.90;;;;;;5016143;28;20605;-62
2023/05/25 05:56:35;;;;;;;1.67;1.58;;;14.10;99.90;;;;;;5013976;28;20225;-61
2023/05/25 05:59:02;;;;;;;2.40;2.20;;;14.20;99.90;;;;;;5012350;28;20225;-61
2023/05/25 06:01:31;;;;;;;1.85;1.75;;;14.60;99.90;;;;;;5012700;28;20636;-61
2023/05/25 06:03:58;;;;;;;1.80;1.70;;;14.70;99.90;;;;;;5012607;28;20271;-61
2023/05/25 06:06:26;;;;;;;1.90;1.80;;;14.70;99.90;;;;;;5013192;28;20579;-61
2023/05/25 06:08:53;;;;;;;1.60;1.50;;;14.70;99.90;;;;;;5012424;28;20320;-61
2023/05/25 06:11:20;;;;;;;2.13;1.95;;;14.80;99.90;;;;;;5011817;28;20304;-62
2023/05/25 06:13:47;;;;;;;1.63;1.52;;;15.00;99.90;;;;;;5012414;28;20212;-62
2023/05/25 06:16:13;;;;;;;1.90;1.80;;;15.20;99.90;;;;;;5012434;28;20591;-63
2023/05/25 06:18:42;;;;;;;1.75;1.65;;;15.10;99.90;;;;;;5012001;28;20225;-62
2023/05/25 06:21:09;;;;;;;1.70;1.60;;;15.00;99.90;;;;;;5011613;28;20215;-62
2023/05/25 06:23:35;;;;;;;2.08;1.80;;;15.00;99.90;;;;;;5012475;28;20205;-62
2023/05/25 06:26:06;;;;;;;1.60;1.50;;;15.10;99.90;;;;;;5012655;28;20627;-62
2023/05/25 06:28:33;;;;;;;1.85;1.73;;;15.00;99.90;;;;;;5012233;28;20275;-62
2023/05/25 06:30:59;;;;;;;3.63;1.80;;;15.10;99.90;;;;;;5011120;28;20202;-62
2023/05/25 06:33:26;;;;;;;2.05;1.75;;;15.10;99.90;;;;;;5011692;28;20680;-62
2023/05/25 06:35:59;;;;;;;2.10;1.90;;;15.10;99.90;;;;;;5012123;28;20267;-63
2023/05/25 06:38:25;;;;;;;1.97;1.87;;;15.30;99.90;;;;;;5011735;28;20234;-62
2023/05/25 06:40:52;;;;;;;1.90;1.80;;;15.40;99.90;;;;;;5011028;28;20209;-62
2023/05/25 06:43:19;;;;;;;1.90;1.80;;;15.40;99.90;;;;;;5011963;28;20209;-62
2023/05/25 06:45:46;;;;;;;3.00;2.13;;;15.40;99.90;;;;;;5011825;28;20731;-63
2023/05/25 06:48:13;;;;;;;1.75;1.65;;;15.20;99.90;;;;;;5011530;28;20233;-62
2023/05/25 06:50:41;;;;;;;2.17;1.77;;;15.20;99.90;;;;;;5010757;28;20696;-62
2023/05/25 06:53:10;;;;;;;1.98;1.85;;;15.40;99.90;;;;;;5011688;28;20205;-62
2023/05/25 06:55:36;;;;;;;2.93;2.23;;;15.40;99.90;;;;;;5011930;28;20233;-63
2023/05/25 06:58:03;;;;;;;1.90;1.80;;;15.40;99.90;;;;;;5011730;28;20251;-64
2023/05/25 07:00:30;;;;;;;1.70;1.60;;;15.40;99.90;;;;;;5010977;28;20664;-63
2023/05/25 07:02:57;;;;;;;1.67;1.58;;;15.50;99.90;;;;;;5011664;28;20213;-62
2023/05/25 07:05:24;;;;;;;2.20;1.95;;;15.80;99.90;;;;;;5014519;28;20207;-63
2023/05/25 07:07:51;;;;;;;1.90;1.80;;;16.00;99.90;;;;;;5031211;28;20291;-63
2023/05/25 07:10:19;;;;;;;1.77;1.67;;;16.10;99.90;;;;;;5032814;28;20211;-65
2023/05/25 07:12:46;;;;;;;1.60;1.50;;;16.30;99.90;;;;;;5036517;28;20205;-64
2023/05/25 07:15:14;;;;;;;1.75;1.65;;;16.50;99.90;;;;;;5033026;28;20232;-66
2023/05/25 07:17:40;;;;;;;1.58;1.48;;;16.30;99.90;;;;;;5034544;28;20304;-64
2023/05/25 07:20:09;;;;;;;1.88;1.77;;;16.50;99.90;;;;;;5029992;28;20210;-63
2023/05/25 07:22:36;;;;;;;1.90;1.80;;;16.80;99.90;;;;;;5031264;28;20208;-63
2023/05/25 07:25:03;;;;;;;2.03;1.80;;;16.90;99.90;;;;;;5031457;28;20212;-63
2023/05/25 07:27:32;;;;;;;2.00;1.90;;;17.00;99.90;;;;;;5031041;28;20207;-63
2023/05/25 07:29:59;;;;;;;1.50;1.40;;;17.00;99.90;;;;;;5030302;28;20231;-63
2023/05/25 07:32:26;;;;;;;2.08;1.85;;;17.00;99.90;;;;;;5030800;28;20220;-63
2023/05/25 07:34:53;;;;;;;1.60;1.50;;;17.10;99.90;;;;;;5030408;28;20201;-63
2023/05/25 07:37:20;;;;;;;1.70;1.60;;;17.10;99.90;;;;;;5030272;28;20695;-63
2023/05/25 07:39:46;;;;;;;1.60;1.50;;;17.20;99.90;;;;;;5029797;28;20299;-62
2023/05/25 07:42:19;;;;;;;1.70;1.60;;;17.20;99.90;;;;;;5029637;28;20207;-62
2023/05/25 07:44:47;;;;;;;1.70;1.60;;;17.30;99.90;;;;;;5027824;28;20651;-62
2023/05/25 07:47:14;;;;;;;1.80;1.70;;;17.30;99.90;;;;;;5030617;28;20189;-63
2023/05/25 07:49:41;;;;;;;1.70;1.60;;;17.20;99.90;;;;;;5029478;28;20230;-63
2023/05/25 07:52:08;;;;;;;1.83;1.73;;;17.30;99.90;;;;;;5030467;28;20941;-63
2023/05/25 07:54:38;;;;;;;1.83;1.73;;;17.30;99.90;;;;;;5030404;28;20201;-62
2023/05/25 07:57:06;;;;;;;2.20;2.00;;;17.30;99.90;;;;;;5027676;28;20691;-63
2023/05/25 07:59:33;;;;;;;1.88;1.77;;;17.30;99.90;;;;;;5024255;28;20227;-63
2023/05/25 08:02:01;;;;;;;1.80;1.70;;;17.50;99.90;;;;;;5030495;28;20283;-63
2023/05/25 08:04:28;;;;;;;1.52;1.42;;;17.40;99.90;;;;;;5030483;28;20951;-63
2023/05/25 08:06:56;;;;;;;2.17;1.98;;;17.20;99.90;;;;;;5030344;28;20201;-63
2023/05/25 08:09:22;;;;;;;3.80;1.92;;;17.10;99.90;;;;;;5029574;28;20220;-64
2023/05/25 08:11:49;;;;;;;2.03;1.83;;;17.10;99.90;;;;;;5030231;28;20198;-63
2023/05/25 08:14:16;;;;;;;2.00;1.90;;;17.00;99.90;;;;;;5030215;28;20201;-63
2023/05/25 08:16:43;;;;;;;1.50;1.40;;;16.90;99.90;;;;;;5030578;28;20614;-62
2023/05/25 08:19:11;;;;;;;1.77;1.67;;;16.90;99.90;;;;;;5029355;28;20227;-63
2023/05/25 08:21:39;;;;;;;2.83;1.70;;;17.00;99.90;;;;;;5028092;28;20207;-62
2023/05/25 08:24:07;;;;;;;1.80;1.60;;;17.00;99.90;;;;;;5028994;28;20201;-63
2023/05/25 08:26:35;;;;;;;1.83;1.73;;;17.10;99.90;;;;;;5028283;28;20555;-63
2023/05/25 08:29:03;;;;;;;1.95;1.80;;;17.20;99.90;;;;;;5029119;28;20298;-63
2023/05/25 08:31:29;;;;;;;1.70;1.60;;;17.20;99.90;;;;;;5030217;28;20208;-64
2023/05/25 08:33:56;;;;;;;1.80;1.70;;;17.30;99.90;;;;;;5030437;28;20223;-64
2023/05/25 08:36:24;;;;;;;1.90;1.80;;;17.40;99.90;;;;;;5029018;28;20225;-63
2023/05/25 08:38:51;;;;;;;2.00;1.90;;;17.40;99.90;;;;;;5029614;28;20216;-63
2023/05/25 08:41:20;;;;;;;1.80;1.70;;;17.40;99.90;;;;;;5029292;28;20203;-63
2023/05/25 08:43:46;;;;;;;1.67;1.58;;;17.50;99.90;;;;;;5030121;28;20205;-63
2023/05/25 08:46:14;;;;;;;1.67;1.58;;;17.50;99.90;;;;;;5029885;28;20220;-63
2023/05/25 08:48:42;;;;;;;2.03;1.80;;;17.70;99.90;;;;;;5029692;28;20267;-63
2023/05/25 08:51:10;;;;;;;2.83;2.00;;;17.80;99.90;;;;;;5027110;28;20209;-63
2023/05/25 08:53:40;;;;;;;1.70;1.60;;;17.70;99.90;;;;;;5029865;28;20819;-63
2023/05/25 08:56:11;;;;;;;1.77;1.67;;;17.70;99.90;;;;;;5033260;28;20377;-62
2023/05/25 08:58:44;;;;;;;1.70;1.60;;;17.80;99.90;;;;;;5032767;28;20221;-62
2023/05/25 09:01:18;;;;;;;2.75;2.10;;;18.00;99.90;;;;;;5032684;28;20254;-62
2023/05/25 09:03:45;;;;;;;1.83;1.73;;;18.00;99.90;;;;;;5031026;28;20208;-63
2023/05/25 09:06:12;;;;;;;2.35;1.90;;;18.10;99.90;;;;;;5033195;28;20205;-62
2023/05/25 09:08:40;;;;;;;1.85;1.67;;;18.30;99.90;;;;;;5033629;28;20224;-61
2023/05/25 09:11:08;;;;;;;1.88;1.70;;;18.40;99.90;;;;;;5032721;28;20203;-62
2023/05/25 09:13:36;;;;;;;2.20;2.00;;;18.50;99.90;;;;;;5033691;28;20342;-62
2023/05/25 09:16:03;;;;;;;1.88;1.77;;;18.50;99.90;;;;;;5033588;28;20219;-63
2023/05/25 09:18:29;;;;;;;2.08;1.98;;;18.50;99.90;;;;;;5030080;28;20233;-63
2023/05/25 09:20:56;;;;;;;1.98;1.88;;;18.50;99.90;;;;;;5033153;28;20243;-62
2023/05/25 09:23:24;;;;;;;2.20;2.00;;;18.50;99.90;;;;;;5033670;28;20611;-63
2023/05/25 09:25:53;;;;;;;2.08;1.98;;;18.60;99.90;;;;;;5033129;28;20209;-64
2023/05/25 09:28:20;;;;;;;2.63;2.13;;;18.60;99.90;;;;;;5028574;28;20312;-63
2023/05/25 09:30:47;;;;;;;2.10;1.90;;;18.60;99.90;;;;;;5027699;28;20322;-62
2023/05/25 09:33:16;;;;;;;2.50;2.03;;;18.70;99.90;;;;;;5033027;28;20200;-62
2023/05/25 09:35:43;;;;;;;2.72;2.20;;;18.80;99.90;;;;;;5032980;28;20220;-62
2023/05/25 09:38:13;;;;;;;1.83;1.73;;;18.90;99.90;;;;;;5032909;28;20232;-63
2023/05/25 09:40:41;;;;;;;2.10;2.00;;;18.90;99.90;;;;;;5032291;28;20211;-63
2023/05/25 09:43:09;;;;;;;2.03;1.83;;;18.90;99.90;;;;;;5032264;28;20200;-63
2023/05/25 09:45:37;;;;;;;2.03;1.85;;;19.00;99.90;;;;;;5032690;28;20212;-63
2023/05/25 09:48:06;;;;;;;2.30;2.13;;;19.00;99.90;;;;;;5033327;28;20236;-63
2023/05/25 09:50:33;;;;;;;1.80;1.70;;;19.20;99.90;;;;;;5031719;28;20204;-64
2023/05/25 09:53:02;;;;;;;2.05;1.85;;;19.40;99.90;;;;;;5032155;28;20697;-64
2023/05/25 09:55:30;;;;;;;1.90;1.80;;;19.60;99.90;;;;;;5032643;28;20204;-64
2023/05/25 09:57:57;;;;;;;2.70;2.50;;;19.70;99.90;;;;;;5031075;28;20657;-64
2023/05/25 10:00:26;;;;;;;2.25;2.05;;;19.80;99.90;;;;;;5031241;28;20197;-64
2023/05/25 10:02:53;;;;;;;2.22;2.10;;;19.60;99.90;;;;;;5030206;28;20576;-64
2023/05/25 10:05:21;;;;;;;1.90;1.80;;;19.50;99.90;;;;;;5030295;28;20201;-63
2023/05/25 10:07:51;;;;;;;2.72;1.90;;;19.40;99.90;;;;;;5029018;28;20205;-64
2023/05/25 10:10:19;;;;;;;2.05;1.88;;;19.50;99.90;;;;;;5029705;28;20209;-64
2023/05/25 10:12:50;;;;;;;2.00;1.85;;;19.60;99.90;;;;;;5032166;28;20216;-63
2023/05/25 10:15:19;;;;;;;3.00;1.92;;;19.80;99.90;;;;;;5031135;28;20213;-65
2023/05/25 10:17:53;;;;;;;2.10;1.90;;;20.10;99.90;;;;;;5031053;28;20224;-65
2023/05/25 10:20:21;;;;;;;2.20;2.00;;;20.00;99.90;;;;;;5028236;28;20655;-64
2023/05/25 10:22:54;;;;;;;1.88;1.77;;;19.90;99.90;;;;;;5031416;28;20205;-66
2023/05/25 10:25:26;;;;;;;2.20;2.00;;;19.90;99.90;;;;;;5029838;28;20255;-64
2023/05/25 10:27:57;;;;;;;2.00;1.90;;;20.00;99.90;;;;;;5031622;28;20197;-62
2023/05/25 10:30:26;;;;;;;2.00;1.90;;;20.20;99.90;;;;;;5028991;28;20318;-64
2023/05/25 10:32:55;;;;;;;1.65;1.55;;;20.40;99.90;;;;;;5031370;28;20663;-63
2023/05/25 10:35:22;;;;;;;1.85;1.75;;;20.20;99.90;;;;;;5031501;28;20201;-63
2023/05/25 10:37:52;;;;;;;1.80;1.70;;;20.30;99.90;;;;;;5031156;28;20706;-65
2023/05/25 10:40:20;;;;;;;1.65;1.55;;;20.40;99.90;;;;;;5031032;28;20667;-63
2023/05/25 10:42:47;;;;;;;1.92;1.83;;;20.60;99.90;;;;;;5028748;28;20283;-64
2023/05/25 10:45:15;;;;;;;2.03;1.80;;;20.70;99.90;;;;;;5026693;28;20256;-64
2023/05/25 10:47:42;;;;;;;2.20;2.00;;;20.80;99.90;;;;;;5026548;28;20713;-63
2023/05/25 10:50:21;;;;;;;2.42;2.20;;;20.90;99.90;;;;;;5026759;28;20343;-64
2023/05/25 10:53:00;;;;;;;1.88;1.77;;;21.00;99.90;;;;;;5031625;28;20540;-63
2023/05/25 10:55:30;;;;;;;2.25;2.05;;;21.00;99.90;;;;;;5031364;28;20590;-64
2023/05/25 10:58:10;;;;;;;1.95;1.83;;;21.00;99.90;;;;;;5031506;28;20244;-65
2023/05/25 11:00:37;;;;;;;2.28;2.08;;;21.00;99.90;;;;;;5030833;28;20220;-65
2023/05/25 11:03:04;;;;;;;1.70;1.60;;;21.30;99.90;;;;;;5031391;28;20204;-63
2023/05/25 11:05:38;;;;;;;2.45;2.08;;;21.50;99.90;;;;;;5031511;28;20695;-65
2023/05/25 11:08:06;;;;;;;1.75;1.65;;;21.60;99.90;;;;;;5031673;28;20605;-64
2023/05/25 11:10:52;;;;;;;1.48;1.35;;;21.60;99.90;;;;;;5030833;28;20212;-64
2023/05/25 11:13:38;;;;;;;1.90;1.80;;;21.60;99.90;;;;;;5031853;28;20200;-64
2023/05/25 11:16:34;;;;;;;1.80;1.70;;;21.50;99.90;;;;;;5029571;28;20255;-64
2023/05/25 11:19:02;;;;;;;1.60;1.50;;;21.60;99.90;;;;;;5030866;28;20769;-64
2023/05/25 11:21:44;;;;;;;1.95;1.85;;;21.60;99.90;;;;;;5031563;28;20209;-64
2023/05/25 11:24:13;;;;;;;2.20;1.60;;;21.80;99.90;;;;;;5031098;28;20239;-64
2023/05/25 11:26:57;;;;;;;1.67;1.58;;;22.00;99.90;;;;;;5031039;28;20204;-64
2023/05/25 11:29:25;;;;;;;1.70;1.60;;;22.20;99.90;;;;;;5030831;28;20236;-64
2023/05/25 11:31:53;;;;;;;3.03;1.77;;;22.30;99.90;;;;;;5038459;28;20208;-65
2023/05/25 11:34:23;;;;;;;1.45;1.35;;;22.30;99.90;;;;;;5032961;28;20204;-65
2023/05/25 11:36:54;;;;;;;1.30;1.20;;;22.30;99.90;;;;;;5032833;28;20280;-64
2023/05/25 11:39:21;;;;;;;1.70;1.60;;;22.50;99.90;;;;;;5030999;28;20236;-65
2023/05/25 11:41:50;;;;;;;1.88;1.77;;;22.90;99.90;;;;;;5031515;28;20210;-64
2023/05/25 11:44:27;;;;;;;1.70;1.60;;;23.10;99.90;;;;;;5031530;28;20204;-64
2023/05/25 11:46:55;;;;;;;1.73;1.63;;;23.00;99.90;;;;;;5031133;28;20200;-65
2023/05/25 11:49:23;;;;;;;1.50;1.40;;;22.90;99.90;;;;;;5030232;28;20255;-63
2023/05/25 11:51:51;;;;;;;1.60;1.50;;;23.00;99.90;;;;;;5031040;28;20208;-64
2023/05/25 11:54:22;;;;;;;1.13;1.13;;;23.20;99.90;;;;;;5031397;28;20208;-64
2023/05/25 11:56:49;;;;;;;1.50;1.40;;;23.40;99.90;;;;;;5030577;28;20651;-64
2023/05/25 11:59:16;;;;;;;1.30;1.30;;;23.50;99.90;;;;;;5030171;28;20293;-64
2023/05/25 12:01:43;;;;;;;1.50;1.40;;;23.50;99.90;;;;;;5030862;28;20209;-65
2023/05/25 12:04:11;;;;;;;1.30;1.27;;;23.30;99.90;;;;;;5031096;28;20287;-65
2023/05/25 12:06:39;;;;;;;1.50;1.40;;;23.30;99.90;;;;;;5030131;28;20742;-64
2023/05/25 12:09:11;;;;;;;1.50;1.40;;;23.10;99.90;;;;;;5029957;28;20323;-63
2023/05/25 12:11:38;;;;;;;1.20;1.20;;;23.00;99.90;;;;;;5030615;28;20193;-63
2023/05/25 12:14:07;;;;;;;1.50;1.40;;;23.00;99.90;;;;;;5030951;28;20205;-64
2023/05/25 12:16:35;;;;;;;1.65;1.48;;;23.00;99.90;;;;;;5031009;28;20204;-63
2023/05/25 12:19:03;;;;;;;1.58;1.48;;;23.00;99.90;;;;;;5030596;28;20229;-65
2023/05/25 12:21:30;;;;;;;1.65;1.55;;;23.30;99.90;;;;;;5030549;28;20299;-65
2023/05/25 12:23:57;;;;;;;1.42;1.33;;;23.60;99.90;;;;;;5030263;28;20220;-63
2023/05/25 12:26:26;;;;;;;1.30;1.30;;;23.70;99.90;;;;;;5030580;28;20211;-63
2023/05/25 12:29:00;;;;;;;1.33;1.30;;;23.70;99.90;;;;;;5034077;28;20572;-63
2023/05/25 12:31:28;;;;;;;1.70;1.58;;;23.80;99.90;;;;;;5034273;28;20216;-65
2023/05/25 12:34:08;;;;;;;1.38;1.33;;;24.00;99.90;;;;;;5035090;28;20212;-63
2023/05/25 12:36:47;;;;;;;1.70;1.60;;;24.20;99.90;;;;;;5034909;28;20595;-64
2023/05/25 12:39:15;;;;;;;1.95;1.50;;;24.30;99.90;;;;;;5033767;28;20228;-65
2023/05/25 12:41:49;;;;;;;1.70;1.60;;;24.40;99.90;;;;;;5034097;28;20212;-64
2023/05/25 12:44:26;;;;;;;1.65;1.55;;;24.20;99.90;;;;;;5033968;28;20295;-63
2023/05/25 12:46:54;;;;;;;1.52;1.42;;;24.10;99.90;;;;;;5033734;28;20258;-64
2023/05/25 12:49:29;;;;;;;1.60;1.50;;;24.10;99.90;;;;;;5033034;28;20745;-64
2023/05/25 12:51:56;;;;;;;1.88;1.70;;;24.20;99.90;;;;;;5034036;28;20212;-65
2023/05/25 12:54:39;;;;;;;1.60;1.50;;;24.20;99.90;;;;;;5034060;28;20209;-64
2023/05/25 12:57:09;;;;;;;1.50;1.40;;;24.30;99.90;;;;;;5033804;28;20228;-65
2023/05/25 12:59:36;;;;;;;1.63;1.52;;;24.00;99.90;;;;;;5033215;28;20711;-64
2023/05/25 13:02:05;;;;;;;2.60;1.63;;;23.80;99.90;;;;;;5033871;28;20215;-65
2023/05/25 13:04:32;;;;;;;1.95;1.52;;;23.70;99.90;;;;;;5033752;28;20599;-65
2023/05/25 13:06:59;;;;;;;1.92;1.52;;;23.60;99.90;;;;;;5033855;28;20208;-65
2023/05/25 13:09:26;;;;;;;1.63;1.52;;;23.60;99.90;;;;;;5032928;28;20779;-65
2023/05/25 13:11:54;;;;;;;1.42;1.33;;;23.50;99.90;;;;;;5034888;28;20215;-64
2023/05/25 13:14:23;;;;;;;1.35;1.33;;;23.60;99.90;;;;;;5034095;28;20209;-65
2023/05/25 13:16:50;;;;;;;2.30;1.45;;;23.70;99.90;;;;;;5033332;28;20205;-65